Falmouth, MA

4:45 AM EST on January 28, 2015 (GMT -0500)
Falmouth Village | Change Station
CLOSE
Current Station
Personal Weather Station
Location: Falmouth, MA
Elevation: 13 ft
Nearby Weather Stations

Elev 13 ft 41.55 °N, 70.61 °W | Updated 4 seconds ago

Overcast
Overcast
15.1 °F
Feels Like 6 °F
N
5.8
Wind Variable Wind from West
Gusts 10.3 mph

Today
High -- | Low -- °F
--% Chance of Precip.
Yesterday
High -- | Low -- °F
Precip. -- in
6:58 AM 4:52 PM
Waxing Gibbous, 63% visible
Pressure 29.74 in
Visibility 10.0 miles
Clouds Mostly Cloudy 2100 ft
Overcast 4900 ft
Windchill 6 °F
Dew Point 7 °F
Humidity 70%
Rainfall 0.00 in
Snow Depth Not available.
UV 0 out of 12
Pollen .10 out of 12
Air Quality Not available.
Flu Activity Not available.
METAR KFMH 280935Z 31009G16KT 10SM BKN021 OVC049 M10/M14 A2974 RMK AO2

More Conditions Fewer Conditions

Pressure 29.74 in
Visibility 10.0 miles
Clouds Mostly Cloudy 2100 ft
Overcast 4900 ft
Windchill 6 °F
Dew Point 7 °F
Humidity 70%
Rainfall 0.00 in
Snow Depth Not available.
UV 0 out of 12
Pollen .10 out of 12
Air Quality Not available.
Flu Activity Not available.
METAR KFMH 280935Z 31009G16KT 10SM BKN021 OVC049 M10/M14 A2974 RMK AO2

More Conditions Fewer Conditions

10-Day Weather Forecast

Almanac

Astronomy

Jan. 28, 2015 Rise Set
Actual Time
Civil Twilight
Nautical Twilight
Astronomical Twilight
Moon
Length of Visible Light
Length of Day
Tomorrow will be .
, % of the Moon is Illuminated

Today's Extremes

State Highs State Lows

Community

WunderPhotos

Upload Photos

1,791,120 photos uploaded!

WunderBlogs® & News

Nearby

Air Quality

  Air Quality AQ Index Pollutant
Not available.

Snow Depth

Station Depth Elevation

Earthquake Activity

City Distance Mag. Time & Date
Minimum magnitude displayed is 2.5.

Coastal Water Temperatures

Place Temperature

Nearby Weather Stations